sensor_id;sensor_type;location;lat;lon;timestamp;P1;durP1;ratioP1;P2;durP2;ratioP2
43857;SDS011;29507;51.284;5.758;2023-07-29T00:01:21;5.40;;;1.92;;
43857;SDS011;29507;51.284;5.758;2023-07-29T00:03:47;3.72;;;1.98;;
43857;SDS011;29507;51.284;5.758;2023-07-29T00:06:13;2.80;;;1.67;;
43857;SDS011;29507;51.284;5.758;2023-07-29T00:08:38;5.40;;;2.00;;
43857;SDS011;29507;51.284;5.758;2023-07-29T00:11:04;3.15;;;1.90;;
43857;SDS011;29507;51.284;5.758;2023-07-29T00:13:30;2.90;;;1.80;;
43857;SDS011;29507;51.284;5.758;2023-07-29T00:15:55;4.05;;;2.00;;
43857;SDS011;29507;51.284;5.758;2023-07-29T00:18:21;7.80;;;1.85;;
43857;SDS011;29507;51.284;5.758;2023-07-29T00:20:48;4.25;;;1.90;;
43857;SDS011;29507;51.284;5.758;2023-07-29T00:23:15;2.90;;;1.80;;
43857;SDS011;29507;51.284;5.758;2023-07-29T00:25:43;3.08;;;1.67;;
43857;SDS011;29507;51.284;5.758;2023-07-29T00:28:09;4.22;;;2.08;;
43857;SDS011;29507;51.284;5.758;2023-07-29T00:30:35;4.53;;;1.80;;
43857;SDS011;29507;51.284;5.758;2023-07-29T00:33:00;4.35;;;1.70;;
43857;SDS011;29507;51.284;5.758;2023-07-29T00:35:26;4.30;;;1.80;;
43857;SDS011;29507;51.284;5.758;2023-07-29T00:37:52;2.72;;;1.58;;
43857;SDS011;29507;51.284;5.758;2023-07-29T00:40:21;6.28;;;2.15;;
43857;SDS011;29507;51.284;5.758;2023-07-29T00:42:47;3.63;;;2.00;;
43857;SDS011;29507;51.284;5.758;2023-07-29T00:45:15;4.32;;;1.73;;
43857;SDS011;29507;51.284;5.758;2023-07-29T00:47:41;3.08;;;1.80;;
43857;SDS011;29507;51.284;5.758;2023-07-29T00:50:07;3.50;;;1.60;;
43857;SDS011;29507;51.284;5.758;2023-07-29T00:52:35;5.07;;;1.43;;
43857;SDS011;29507;51.284;5.758;2023-07-29T00:55:01;2.85;;;1.65;;
43857;SDS011;29507;51.284;5.758;2023-07-29T00:57:27;3.25;;;2.08;;
43857;SDS011;29507;51.284;5.758;2023-07-29T00:59:54;4.65;;;2.00;;
43857;SDS011;29507;51.284;5.758;2023-07-29T01:02:20;3.97;;;2.33;;
43857;SDS011;29507;51.284;5.758;2023-07-29T01:04:51;4.07;;;2.10;;
43857;SDS011;29507;51.284;5.758;2023-07-29T01:09:56;3.85;;;2.13;;
43857;SDS011;29507;51.284;5.758;2023-07-29T01:18:18;6.38;;;2.47;;
43857;SDS011;29507;51.284;5.758;2023-07-29T01:20:50;4.28;;;2.30;;
43857;SDS011;29507;51.284;5.758;2023-07-29T01:23:26;3.70;;;2.60;;
43857;SDS011;29507;51.284;5.758;2023-07-29T01:25:55;4.63;;;2.85;;
43857;SDS011;29507;51.284;5.758;2023-07-29T01:28:20;5.43;;;3.00;;
43857;SDS011;29507;51.284;5.758;2023-07-29T01:30:46;3.40;;;2.40;;
43857;SDS011;29507;51.284;5.758;2023-07-29T01:33:18;4.50;;;2.70;;
43857;SDS011;29507;51.284;5.758;2023-07-29T01:35:50;3.58;;;2.40;;
43857;SDS011;29507;51.284;5.758;2023-07-29T01:38:21;3.20;;;2.30;;
43857;SDS011;29507;51.284;5.758;2023-07-29T01:40:53;4.43;;;2.10;;
43857;SDS011;29507;51.284;5.758;2023-07-29T01:43:19;4.07;;;2.60;;
43857;SDS011;29507;51.284;5.758;2023-07-29T01:45:48;6.65;;;2.47;;
43857;SDS011;29507;51.284;5.758;2023-07-29T01:48:14;4.80;;;3.05;;
43857;SDS011;29507;51.284;5.758;2023-07-29T01:50:40;4.22;;;2.90;;
43857;SDS011;29507;51.284;5.758;2023-07-29T01:53:05;4.85;;;2.78;;
43857;SDS011;29507;51.284;5.758;2023-07-29T01:55:31;4.20;;;2.83;;
43857;SDS011;29507;51.284;5.758;2023-07-29T01:57:57;5.45;;;2.38;;
43857;SDS011;29507;51.284;5.758;2023-07-29T02:00:23;5.10;;;2.67;;
43857;SDS011;29507;51.284;5.758;2023-07-29T02:02:49;3.38;;;2.10;;
43857;SDS011;29507;51.284;5.758;2023-07-29T02:05:14;3.42;;;1.90;;
43857;SDS011;29507;51.284;5.758;2023-07-29T02:07:40;3.70;;;1.80;;
43857;SDS011;29507;51.284;5.758;2023-07-29T02:10:06;5.18;;;2.45;;
43857;SDS011;29507;51.284;5.758;2023-07-29T02:12:32;3.95;;;2.08;;
43857;SDS011;29507;51.284;5.758;2023-07-29T02:14:58;4.18;;;2.45;;
43857;SDS011;29507;51.284;5.758;2023-07-29T02:17:24;3.47;;;1.90;;
43857;SDS011;29507;51.284;5.758;2023-07-29T02:19:51;6.13;;;1.60;;
43857;SDS011;29507;51.284;5.758;2023-07-29T02:22:17;5.13;;;1.65;;
43857;SDS011;29507;51.284;5.758;2023-07-29T02:24:43;4.72;;;1.50;;
43857;SDS011;29507;51.284;5.758;2023-07-29T02:27:10;3.05;;;1.45;;
43857;SDS011;29507;51.284;5.758;2023-07-29T02:29:36;4.00;;;1.35;;
43857;SDS011;29507;51.284;5.758;2023-07-29T02:32:01;3.15;;;1.33;;
43857;SDS011;29507;51.284;5.758;2023-07-29T02:34:28;6.85;;;1.27;;
43857;SDS011;29507;51.284;5.758;2023-07-29T02:36:53;4.63;;;1.65;;
43857;SDS011;29507;51.284;5.758;2023-07-29T02:39:19;2.70;;;1.20;;
43857;SDS011;29507;51.284;5.758;2023-07-29T02:41:45;3.40;;;1.35;;
43857;SDS011;29507;51.284;5.758;2023-07-29T02:44:11;2.97;;;1.48;;
43857;SDS011;29507;51.284;5.758;2023-07-29T02:46:36;2.63;;;1.25;;
43857;SDS011;29507;51.284;5.758;2023-07-29T02:49:02;3.30;;;1.30;;
43857;SDS011;29507;51.284;5.758;2023-07-29T02:51:29;3.85;;;1.52;;
43857;SDS011;29507;51.284;5.758;2023-07-29T02:53:55;3.60;;;1.50;;
43857;SDS011;29507;51.284;5.758;2023-07-29T02:56:21;4.97;;;1.58;;
43857;SDS011;29507;51.284;5.758;2023-07-29T02:58:46;3.42;;;1.80;;
43857;SDS011;29507;51.284;5.758;2023-07-29T03:01:12;2.97;;;1.33;;
43857;SDS011;29507;51.284;5.758;2023-07-29T03:03:38;4.53;;;1.38;;
43857;SDS011;29507;51.284;5.758;2023-07-29T03:06:05;5.10;;;2.00;;
43857;SDS011;29507;51.284;5.758;2023-07-29T03:08:32;3.08;;;1.55;;
43857;SDS011;29507;51.284;5.758;2023-07-29T03:11:04;4.13;;;1.42;;
43857;SDS011;29507;51.284;5.758;2023-07-29T03:13:34;2.72;;;1.42;;
43857;SDS011;29507;51.284;5.758;2023-07-29T03:16:09;3.33;;;1.67;;
43857;SDS011;29507;51.284;5.758;2023-07-29T03:18:36;3.97;;;1.35;;
43857;SDS011;29507;51.284;5.758;2023-07-29T03:21:03;3.58;;;1.90;;
43857;SDS011;29507;51.284;5.758;2023-07-29T03:23:29;3.22;;;1.63;;
43857;SDS011;29507;51.284;5.758;2023-07-29T03:25:56;4.63;;;1.60;;
43857;SDS011;29507;51.284;5.758;2023-07-29T03:28:24;4.07;;;1.85;;
43857;SDS011;29507;51.284;5.758;2023-07-29T03:30:52;3.60;;;1.50;;
43857;SDS011;29507;51.284;5.758;2023-07-29T03:33:20;4.97;;;1.50;;
43857;SDS011;29507;51.284;5.758;2023-07-29T03:35:46;6.75;;;2.03;;
43857;SDS011;29507;51.284;5.758;2023-07-29T03:38:12;6.10;;;1.35;;
43857;SDS011;29507;51.284;5.758;2023-07-29T03:40:38;3.55;;;1.70;;
43857;SDS011;29507;51.284;5.758;2023-07-29T03:43:04;3.75;;;1.90;;
43857;SDS011;29507;51.284;5.758;2023-07-29T03:45:30;4.25;;;1.50;;
43857;SDS011;29507;51.284;5.758;2023-07-29T03:47:56;3.50;;;1.42;;
43857;SDS011;29507;51.284;5.758;2023-07-29T03:50:21;4.10;;;1.70;;
43857;SDS011;29507;51.284;5.758;2023-07-29T03:52:47;3.35;;;1.58;;
43857;SDS011;29507;51.284;5.758;2023-07-29T03:55:13;3.05;;;1.52;;
43857;SDS011;29507;51.284;5.758;2023-07-29T03:57:39;5.03;;;1.60;;
43857;SDS011;29507;51.284;5.758;2023-07-29T04:00:04;3.38;;;1.77;;
43857;SDS011;29507;51.284;5.758;2023-07-29T04:02:31;4.43;;;1.70;;
43857;SDS011;29507;51.284;5.758;2023-07-29T04:04:56;3.05;;;1.38;;
43857;SDS011;29507;51.284;5.758;2023-07-29T04:07:22;3.17;;;1.60;;
43857;SDS011;29507;51.284;5.758;2023-07-29T04:09:48;4.05;;;1.67;;
43857;SDS011;29507;51.284;5.758;2023-07-29T04:12:14;3.80;;;1.95;;
43857;SDS011;29507;51.284;5.758;2023-07-29T04:14:40;3.38;;;1.50;;
43857;SDS011;29507;51.284;5.758;2023-07-29T04:17:06;3.83;;;1.40;;
43857;SDS011;29507;51.284;5.758;2023-07-29T04:19:32;5.35;;;2.05;;
43857;SDS011;29507;51.284;5.758;2023-07-29T04:21:58;5.53;;;1.70;;
43857;SDS011;29507;51.284;5.758;2023-07-29T04:24:24;4.53;;;1.60;;
43857;SDS011;29507;51.284;5.758;2023-07-29T04:26:50;3.60;;;1.55;;
43857;SDS011;29507;51.284;5.758;2023-07-29T04:29:16;3.30;;;1.60;;
43857;SDS011;29507;51.284;5.758;2023-07-29T04:31:42;4.85;;;1.75;;
43857;SDS011;29507;51.284;5.758;2023-07-29T04:34:07;4.53;;;2.17;;
43857;SDS011;29507;51.284;5.758;2023-07-29T04:36:34;7.45;;;2.10;;
43857;SDS011;29507;51.284;5.758;2023-07-29T04:38:59;3.08;;;1.60;;
43857;SDS011;29507;51.284;5.758;2023-07-29T04:41:25;3.13;;;1.40;;
43857;SDS011;29507;51.284;5.758;2023-07-29T04:43:51;5.32;;;1.63;;
43857;SDS011;29507;51.284;5.758;2023-07-29T04:46:17;2.72;;;1.23;;
43857;SDS011;29507;51.284;5.758;2023-07-29T04:48:43;5.05;;;1.60;;
43857;SDS011;29507;51.284;5.758;2023-07-29T04:51:08;4.28;;;1.63;;
43857;SDS011;29507;51.284;5.758;2023-07-29T04:53:34;3.78;;;1.70;;
43857;SDS011;29507;51.284;5.758;2023-07-29T04:56:03;3.15;;;1.45;;
43857;SDS011;29507;51.284;5.758;2023-07-29T04:58:29;6.50;;;1.88;;
43857;SDS011;29507;51.284;5.758;2023-07-29T05:00:55;3.10;;;1.65;;
43857;SDS011;29507;51.284;5.758;2023-07-29T05:03:21;2.95;;;1.40;;
43857;SDS011;29507;51.284;5.758;2023-07-29T05:05:47;4.03;;;1.48;;
43857;SDS011;29507;51.284;5.758;2023-07-29T05:08:12;3.65;;;1.40;;
43857;SDS011;29507;51.284;5.758;2023-07-29T05:10:38;5.40;;;1.40;;
43857;SDS011;29507;51.284;5.758;2023-07-29T05:13:03;3.95;;;1.40;;
43857;SDS011;29507;51.284;5.758;2023-07-29T05:15:29;4.15;;;1.52;;
43857;SDS011;29507;51.284;5.758;2023-07-29T05:17:55;3.40;;;1.30;;
43857;SDS011;29507;51.284;5.758;2023-07-29T05:20:21;3.53;;;1.25;;
43857;SDS011;29507;51.284;5.758;2023-07-29T05:22:46;2.28;;;1.20;;
43857;SDS011;29507;51.284;5.758;2023-07-29T05:25:12;3.70;;;1.30;;
43857;SDS011;29507;51.284;5.758;2023-07-29T05:27:38;2.92;;;1.30;;
43857;SDS011;29507;51.284;5.758;2023-07-29T05:30:03;2.47;;;1.10;;
43857;SDS011;29507;51.284;5.758;2023-07-29T05:32:29;3.45;;;1.23;;
43857;SDS011;29507;51.284;5.758;2023-07-29T05:34:55;2.58;;;1.20;;
43857;SDS011;29507;51.284;5.758;2023-07-29T05:37:21;4.18;;;1.30;;
43857;SDS011;29507;51.284;5.758;2023-07-29T05:39:46;4.05;;;1.83;;
43857;SDS011;29507;51.284;5.758;2023-07-29T05:42:12;4.10;;;1.70;;
43857;SDS011;29507;51.284;5.758;2023-07-29T05:44:37;4.35;;;1.42;;
43857;SDS011;29507;51.284;5.758;2023-07-29T05:47:03;3.83;;;1.20;;
43857;SDS011;29507;51.284;5.758;2023-07-29T05:49:29;3.03;;;1.27;;
43857;SDS011;29507;51.284;5.758;2023-07-29T05:51:55;3.58;;;1.38;;
43857;SDS011;29507;51.284;5.758;2023-07-29T05:54:21;4.43;;;1.50;;
43857;SDS011;29507;51.284;5.758;2023-07-29T05:56:47;2.38;;;1.10;;
43857;SDS011;29507;51.284;5.758;2023-07-29T05:59:12;4.90;;;1.60;;
43857;SDS011;29507;51.284;5.758;2023-07-29T06:01:38;4.65;;;1.55;;
43857;SDS011;29507;51.284;5.758;2023-07-29T06:04:04;3.38;;;1.35;;
43857;SDS011;29507;51.284;5.758;2023-07-29T06:06:29;5.00;;;1.20;;
43857;SDS011;29507;51.284;5.758;2023-07-29T06:08:55;3.83;;;1.38;;
43857;SDS011;29507;51.284;5.758;2023-07-29T06:11:21;2.97;;;1.25;;
43857;SDS011;29507;51.284;5.758;2023-07-29T06:13:47;4.75;;;1.17;;
43857;SDS011;29507;51.284;5.758;2023-07-29T06:16:12;1.92;;;0.90;;
43857;SDS011;29507;51.284;5.758;2023-07-29T06:18:38;2.35;;;1.13;;
43857;SDS011;29507;51.284;5.758;2023-07-29T06:21:04;3.08;;;1.60;;
43857;SDS011;29507;51.284;5.758;2023-07-29T06:23:32;2.70;;;1.00;;
43857;SDS011;29507;51.284;5.758;2023-07-29T06:25:58;4.18;;;1.20;;
43857;SDS011;29507;51.284;5.758;2023-07-29T06:28:25;2.53;;;1.00;;
43857;SDS011;29507;51.284;5.758;2023-07-29T06:30:51;2.55;;;1.10;;
43857;SDS011;29507;51.284;5.758;2023-07-29T06:33:17;3.28;;;1.33;;
43857;SDS011;29507;51.284;5.758;2023-07-29T06:35:43;2.83;;;0.88;;
43857;SDS011;29507;51.284;5.758;2023-07-29T06:38:08;3.00;;;0.93;;
43857;SDS011;29507;51.284;5.758;2023-07-29T06:40:34;2.22;;;0.93;;
43857;SDS011;29507;51.284;5.758;2023-07-29T06:43:00;1.45;;;0.85;;
43857;SDS011;29507;51.284;5.758;2023-07-29T06:45:26;2.10;;;0.90;;
43857;SDS011;29507;51.284;5.758;2023-07-29T06:47:51;2.45;;;0.98;;
43857;SDS011;29507;51.284;5.758;2023-07-29T06:50:17;3.90;;;1.10;;
43857;SDS011;29507;51.284;5.758;2023-07-29T06:52:43;2.00;;;0.80;;
43857;SDS011;29507;51.284;5.758;2023-07-29T06:55:08;2.30;;;1.05;;
43857;SDS011;29507;51.284;5.758;2023-07-29T06:57:34;3.53;;;1.08;;
43857;SDS011;29507;51.284;5.758;2023-07-29T07:00:00;3.75;;;0.90;;
43857;SDS011;29507;51.284;5.758;2023-07-29T07:02:26;2.40;;;1.10;;
43857;SDS011;29507;51.284;5.758;2023-07-29T07:04:51;1.67;;;0.68;;
43857;SDS011;29507;51.284;5.758;2023-07-29T07:07:17;2.22;;;0.80;;
43857;SDS011;29507;51.284;5.758;2023-07-29T07:09:42;3.10;;;0.90;;
43857;SDS011;29507;51.284;5.758;2023-07-29T07:12:08;1.83;;;0.88;;
43857;SDS011;29507;51.284;5.758;2023-07-29T07:14:34;2.78;;;0.90;;
43857;SDS011;29507;51.284;5.758;2023-07-29T07:16:59;1.42;;;0.60;;
43857;SDS011;29507;51.284;5.758;2023-07-29T07:19:25;2.72;;;1.00;;
43857;SDS011;29507;51.284;5.758;2023-07-29T07:21:50;3.00;;;0.80;;
43857;SDS011;29507;51.284;5.758;2023-07-29T07:24:16;2.28;;;0.50;;
43857;SDS011;29507;51.284;5.758;2023-07-29T07:26:42;2.55;;;0.70;;
43857;SDS011;29507;51.284;5.758;2023-07-29T07:29:07;1.98;;;0.70;;
43857;SDS011;29507;51.284;5.758;2023-07-29T07:31:33;1.48;;;0.70;;
43857;SDS011;29507;51.284;5.758;2023-07-29T07:34:00;3.00;;;0.88;;
43857;SDS011;29507;51.284;5.758;2023-07-29T07:36:27;1.85;;;0.70;;
43857;SDS011;29507;51.284;5.758;2023-07-29T07:38:52;1.52;;;0.70;;
43857;SDS011;29507;51.284;5.758;2023-07-29T07:41:18;2.72;;;0.82;;
43857;SDS011;29507;51.284;5.758;2023-07-29T07:43:44;2.75;;;0.90;;
43857;SDS011;29507;51.284;5.758;2023-07-29T07:46:09;1.88;;;0.90;;
43857;SDS011;29507;51.284;5.758;2023-07-29T07:48:35;2.17;;;0.77;;
43857;SDS011;29507;51.284;5.758;2023-07-29T07:51:09;2.33;;;0.73;;
43857;SDS011;29507;51.284;5.758;2023-07-29T07:53:36;2.38;;;0.75;;
43857;SDS011;29507;51.284;5.758;2023-07-29T07:56:01;1.80;;;0.70;;
43857;SDS011;29507;51.284;5.758;2023-07-29T07:58:27;1.98;;;0.75;;
43857;SDS011;29507;51.284;5.758;2023-07-29T08:01:00;1.98;;;0.60;;
43857;SDS011;29507;51.284;5.758;2023-07-29T08:03:26;2.45;;;0.90;;
43857;SDS011;29507;51.284;5.758;2023-07-29T08:05:52;2.67;;;0.93;;
43857;SDS011;29507;51.284;5.758;2023-07-29T08:08:17;3.10;;;0.90;;
43857;SDS011;29507;51.284;5.758;2023-07-29T08:10:44;2.30;;;0.73;;
43857;SDS011;29507;51.284;5.758;2023-07-29T08:13:09;1.42;;;0.65;;
43857;SDS011;29507;51.284;5.758;2023-07-29T08:15:35;2.05;;;0.70;;
43857;SDS011;29507;51.284;5.758;2023-07-29T08:18:00;1.80;;;0.63;;
43857;SDS011;29507;51.284;5.758;2023-07-29T08:20:26;3.00;;;0.75;;
43857;SDS011;29507;51.284;5.758;2023-07-29T08:22:52;2.05;;;0.52;;
43857;SDS011;29507;51.284;5.758;2023-07-29T08:25:17;1.90;;;0.75;;
43857;SDS011;29507;51.284;5.758;2023-07-29T08:27:43;2.28;;;0.90;;
43857;SDS011;29507;51.284;5.758;2023-07-29T08:30:09;1.55;;;0.70;;
43857;SDS011;29507;51.284;5.758;2023-07-29T08:32:34;1.45;;;0.60;;
43857;SDS011;29507;51.284;5.758;2023-07-29T08:35:00;2.80;;;1.02;;
43857;SDS011;29507;51.284;5.758;2023-07-29T08:37:26;1.40;;;0.70;;
43857;SDS011;29507;51.284;5.758;2023-07-29T08:39:52;2.55;;;0.60;;
43857;SDS011;29507;51.284;5.758;2023-07-29T08:42:19;1.65;;;0.60;;
43857;SDS011;29507;51.284;5.758;2023-07-29T08:44:45;1.90;;;0.80;;
43857;SDS011;29507;51.284;5.758;2023-07-29T08:47:14;1.23;;;0.40;;
43857;SDS011;29507;51.284;5.758;2023-07-29T08:49:40;1.77;;;0.70;;
43857;SDS011;29507;51.284;5.758;2023-07-29T08:52:06;1.27;;;0.60;;
43857;SDS011;29507;51.284;5.758;2023-07-29T08:54:32;2.13;;;0.82;;
43857;SDS011;29507;51.284;5.758;2023-07-29T08:56:59;2.13;;;0.85;;
43857;SDS011;29507;51.284;5.758;2023-07-29T08:59:25;2.40;;;0.82;;
43857;SDS011;29507;51.284;5.758;2023-07-29T09:01:52;1.23;;;0.70;;
43857;SDS011;29507;51.284;5.758;2023-07-29T09:04:21;1.60;;;0.70;;
43857;SDS011;29507;51.284;5.758;2023-07-29T09:06:48;1.95;;;0.90;;
43857;SDS011;29507;51.284;5.758;2023-07-29T09:09:15;2.95;;;0.80;;
43857;SDS011;29507;51.284;5.758;2023-07-29T09:11:41;1.77;;;0.50;;
43857;SDS011;29507;51.284;5.758;2023-07-29T09:14:07;1.80;;;0.73;;
43857;SDS011;29507;51.284;5.758;2023-07-29T09:16:32;2.65;;;0.80;;
43857;SDS011;29507;51.284;5.758;2023-07-29T09:19:02;5.75;;;1.15;;
43857;SDS011;29507;51.284;5.758;2023-07-29T09:23:54;2.78;;;0.65;;
43857;SDS011;29507;51.284;5.758;2023-07-29T09:26:27;2.92;;;0.85;;
43857;SDS011;29507;51.284;5.758;2023-07-29T09:28:54;3.38;;;0.73;;
43857;SDS011;29507;51.284;5.758;2023-07-29T09:31:21;1.90;;;0.95;;
43857;SDS011;29507;51.284;5.758;2023-07-29T09:33:47;1.65;;;0.85;;
43857;SDS011;29507;51.284;5.758;2023-07-29T09:36:14;1.75;;;0.70;;
43857;SDS011;29507;51.284;5.758;2023-07-29T09:38:40;2.03;;;0.65;;
43857;SDS011;29507;51.284;5.758;2023-07-29T09:41:05;1.77;;;0.80;;
43857;SDS011;29507;51.284;5.758;2023-07-29T09:43:32;2.55;;;0.80;;
43857;SDS011;29507;51.284;5.758;2023-07-29T09:46:02;3.05;;;1.00;;
43857;SDS011;29507;51.284;5.758;2023-07-29T09:48:37;2.38;;;0.90;;
43857;SDS011;29507;51.284;5.758;2023-07-29T09:51:12;2.17;;;0.90;;
43857;SDS011;29507;51.284;5.758;2023-07-29T09:53:43;2.30;;;0.77;;
43857;SDS011;29507;51.284;5.758;2023-07-29T09:56:10;1.63;;;0.73;;
43857;SDS011;29507;51.284;5.758;2023-07-29T09:58:37;3.13;;;0.60;;
43857;SDS011;29507;51.284;5.758;2023-07-29T10:01:04;1.50;;;0.70;;
43857;SDS011;29507;51.284;5.758;2023-07-29T10:03:31;1.67;;;0.70;;
43857;SDS011;29507;51.284;5.758;2023-07-29T10:06:02;2.22;;;0.85;;
43857;SDS011;29507;51.284;5.758;2023-07-29T10:08:29;3.45;;;1.08;;
43857;SDS011;29507;51.284;5.758;2023-07-29T10:11:05;1.25;;;0.60;;
43857;SDS011;29507;51.284;5.758;2023-07-29T10:13:31;1.25;;;0.60;;
43857;SDS011;29507;51.284;5.758;2023-07-29T10:15:57;2.20;;;0.95;;
43857;SDS011;29507;51.284;5.758;2023-07-29T10:18:23;2.17;;;0.70;;
43857;SDS011;29507;51.284;5.758;2023-07-29T10:20:50;1.60;;;0.80;;
43857;SDS011;29507;51.284;5.758;2023-07-29T10:23:17;2.43;;;0.90;;
43857;SDS011;29507;51.284;5.758;2023-07-29T10:25:46;2.95;;;1.70;;
43857;SDS011;29507;51.284;5.758;2023-07-29T10:28:15;2.15;;;0.98;;
43857;SDS011;29507;51.284;5.758;2023-07-29T10:30:45;3.58;;;1.08;;
43857;SDS011;29507;51.284;5.758;2023-07-29T10:33:11;3.35;;;0.85;;
43857;SDS011;29507;51.284;5.758;2023-07-29T10:35:37;3.53;;;0.98;;
43857;SDS011;29507;51.284;5.758;2023-07-29T10:38:03;2.10;;;0.70;;
43857;SDS011;29507;51.284;5.758;2023-07-29T10:40:50;2.03;;;0.90;;
43857;SDS011;29507;51.284;5.758;2023-07-29T10:46:06;2.08;;;0.90;;
43857;SDS011;29507;51.284;5.758;2023-07-29T10:48:56;2.13;;;0.93;;
43857;SDS011;29507;51.284;5.758;2023-07-29T10:51:22;3.13;;;0.85;;
43857;SDS011;29507;51.284;5.758;2023-07-29T10:53:58;2.03;;;0.90;;
43857;SDS011;29507;51.284;5.758;2023-07-29T10:56:30;1.77;;;0.80;;
43857;SDS011;29507;51.284;5.758;2023-07-29T11:01:40;2.95;;;0.90;;
43857;SDS011;29507;51.284;5.758;2023-07-29T11:09:42;2.47;;;1.20;;
43857;SDS011;29507;51.284;5.758;2023-07-29T11:20:11;2.10;;;0.70;;
43857;SDS011;29507;51.284;5.758;2023-07-29T11:22:37;2.33;;;0.80;;
43857;SDS011;29507;51.284;5.758;2023-07-29T11:25:04;1.50;;;0.65;;
43857;SDS011;29507;51.284;5.758;2023-07-29T11:27:30;2.75;;;0.82;;
43857;SDS011;29507;51.284;5.758;2023-07-29T11:29:56;2.13;;;1.15;;
43857;SDS011;29507;51.284;5.758;2023-07-29T11:32:27;2.03;;;1.00;;
43857;SDS011;29507;51.284;5.758;2023-07-29T11:34:53;1.50;;;0.70;;
43857;SDS011;29507;51.284;5.758;2023-07-29T11:37:18;1.92;;;0.98;;
43857;SDS011;29507;51.284;5.758;2023-07-29T11:39:45;2.25;;;1.13;;
43857;SDS011;29507;51.284;5.758;2023-07-29T11:42:12;1.80;;;0.70;;
43857;SDS011;29507;51.284;5.758;2023-07-29T11:44:38;4.10;;;0.80;;
43857;SDS011;29507;51.284;5.758;2023-07-29T11:47:07;2.13;;;1.00;;
43857;SDS011;29507;51.284;5.758;2023-07-29T11:49:37;1.75;;;0.70;;
43857;SDS011;29507;51.284;5.758;2023-07-29T11:52:05;2.55;;;1.00;;
43857;SDS011;29507;51.284;5.758;2023-07-29T11:54:33;2.83;;;0.98;;
43857;SDS011;29507;51.284;5.758;2023-07-29T11:57:00;4.22;;;0.77;;
43857;SDS011;29507;51.284;5.758;2023-07-29T11:59:27;1.73;;;0.88;;
43857;SDS011;29507;51.284;5.758;2023-07-29T12:01:53;1.98;;;0.90;;
43857;SDS011;29507;51.284;5.758;2023-07-29T12:04:19;3.78;;;0.95;;
43857;SDS011;29507;51.284;5.758;2023-07-29T12:06:45;2.35;;;0.95;;
43857;SDS011;29507;51.284;5.758;2023-07-29T12:09:11;2.42;;;1.13;;
43857;SDS011;29507;51.284;5.758;2023-07-29T12:11:38;2.20;;;0.85;;
43857;SDS011;29507;51.284;5.758;2023-07-29T12:14:07;2.95;;;0.98;;
43857;SDS011;29507;51.284;5.758;2023-07-29T12:16:39;2.08;;;0.80;;
43857;SDS011;29507;51.284;5.758;2023-07-29T12:19:06;1.88;;;0.90;;
43857;SDS011;29507;51.284;5.758;2023-07-29T12:21:32;2.72;;;0.88;;
43857;SDS011;29507;51.284;5.758;2023-07-29T12:23:58;2.38;;;0.93;;
43857;SDS011;29507;51.284;5.758;2023-07-29T12:26:27;2.88;;;0.90;;
43857;SDS011;29507;51.284;5.758;2023-07-29T12:28:55;1.95;;;0.90;;
43857;SDS011;29507;51.284;5.758;2023-07-29T12:31:21;2.40;;;1.00;;
43857;SDS011;29507;51.284;5.758;2023-07-29T12:33:56;2.17;;;0.90;;
43857;SDS011;29507;51.284;5.758;2023-07-29T12:36:22;3.42;;;1.20;;
43857;SDS011;29507;51.284;5.758;2023-07-29T12:38:52;2.47;;;1.15;;
43857;SDS011;29507;51.284;5.758;2023-07-29T12:41:17;2.42;;;1.13;;
43857;SDS011;29507;51.284;5.758;2023-07-29T12:43:43;2.25;;;1.02;;
43857;SDS011;29507;51.284;5.758;2023-07-29T12:46:09;2.03;;;1.00;;
43857;SDS011;29507;51.284;5.758;2023-07-29T12:48:34;3.50;;;1.38;;
43857;SDS011;29507;51.284;5.758;2023-07-29T12:51:00;2.60;;;1.00;;
43857;SDS011;29507;51.284;5.758;2023-07-29T12:53:25;2.95;;;1.13;;
43857;SDS011;29507;51.284;5.758;2023-07-29T12:55:51;2.65;;;1.30;;
43857;SDS011;29507;51.284;5.758;2023-07-29T12:58:17;4.88;;;1.30;;
43857;SDS011;29507;51.284;5.758;2023-07-29T13:00:42;3.78;;;1.23;;
43857;SDS011;29507;51.284;5.758;2023-07-29T13:03:08;5.68;;;1.42;;
43857;SDS011;29507;51.284;5.758;2023-07-29T13:05:34;2.65;;;1.20;;
43857;SDS011;29507;51.284;5.758;2023-07-29T13:07:59;2.58;;;1.10;;
43857;SDS011;29507;51.284;5.758;2023-07-29T13:10:25;3.42;;;1.60;;
43857;SDS011;29507;51.284;5.758;2023-07-29T13:12:50;2.67;;;1.50;;
43857;SDS011;29507;51.284;5.758;2023-07-29T13:15:16;3.15;;;1.65;;
43857;SDS011;29507;51.284;5.758;2023-07-29T13:17:42;4.45;;;2.15;;
43857;SDS011;29507;51.284;5.758;2023-07-29T13:20:07;2.78;;;1.58;;
43857;SDS011;29507;51.284;5.758;2023-07-29T13:22:33;3.80;;;1.60;;
43857;SDS011;29507;51.284;5.758;2023-07-29T13:24:59;2.45;;;1.30;;
43857;SDS011;29507;51.284;5.758;2023-07-29T13:27:24;3.03;;;1.40;;
43857;SDS011;29507;51.284;5.758;2023-07-29T13:29:51;5.65;;;1.55;;
43857;SDS011;29507;51.284;5.758;2023-07-29T13:32:17;3.30;;;1.65;;
43857;SDS011;29507;51.284;5.758;2023-07-29T13:34:43;3.78;;;1.10;;
43857;SDS011;29507;51.284;5.758;2023-07-29T13:37:08;3.00;;;1.30;;
43857;SDS011;29507;51.284;5.758;2023-07-29T13:39:34;2.85;;;1.23;;
43857;SDS011;29507;51.284;5.758;2023-07-29T13:42:00;2.00;;;1.05;;
43857;SDS011;29507;51.284;5.758;2023-07-29T13:44:26;1.88;;;1.10;;
43857;SDS011;29507;51.284;5.758;2023-07-29T13:46:51;1.67;;;0.90;;
43857;SDS011;29507;51.284;5.758;2023-07-29T13:49:17;3.50;;;1.38;;
43857;SDS011;29507;51.284;5.758;2023-07-29T13:51:42;2.30;;;1.10;;
43857;SDS011;29507;51.284;5.758;2023-07-29T13:54:08;2.80;;;1.33;;
43857;SDS011;29507;51.284;5.758;2023-07-29T13:56:34;4.72;;;1.40;;
43857;SDS011;29507;51.284;5.758;2023-07-29T13:58:59;2.88;;;1.00;;
43857;SDS011;29507;51.284;5.758;2023-07-29T14:01:25;1.95;;;0.77;;
43857;SDS011;29507;51.284;5.758;2023-07-29T14:03:51;3.25;;;1.30;;
43857;SDS011;29507;51.284;5.758;2023-07-29T14:06:16;3.33;;;1.15;;
43857;SDS011;29507;51.284;5.758;2023-07-29T14:08:42;1.50;;;0.50;;
43857;SDS011;29507;51.284;5.758;2023-07-29T14:11:08;2.13;;;0.82;;
43857;SDS011;29507;51.284;5.758;2023-07-29T14:13:34;1.70;;;0.88;;
43857;SDS011;29507;51.284;5.758;2023-07-29T14:16:02;3.97;;;0.82;;
43857;SDS011;29507;51.284;5.758;2023-07-29T14:18:28;2.53;;;1.13;;
43857;SDS011;29507;51.284;5.758;2023-07-29T14:20:55;2.70;;;1.15;;
43857;SDS011;29507;51.284;5.758;2023-07-29T14:23:21;3.15;;;1.00;;
43857;SDS011;29507;51.284;5.758;2023-07-29T14:25:46;4.20;;;1.25;;
43857;SDS011;29507;51.284;5.758;2023-07-29T14:28:13;2.58;;;1.38;;
43857;SDS011;29507;51.284;5.758;2023-07-29T14:30:39;2.20;;;0.88;;
43857;SDS011;29507;51.284;5.758;2023-07-29T14:33:06;3.47;;;0.95;;
43857;SDS011;29507;51.284;5.758;2023-07-29T14:35:32;1.73;;;0.70;;
43857;SDS011;29507;51.284;5.758;2023-07-29T14:37:58;2.60;;;0.90;;
43857;SDS011;29507;51.284;5.758;2023-07-29T14:40:23;2.60;;;0.90;;
43857;SDS011;29507;51.284;5.758;2023-07-29T14:42:49;3.53;;;1.17;;
43857;SDS011;29507;51.284;5.758;2023-07-29T14:45:14;3.58;;;1.10;;
43857;SDS011;29507;51.284;5.758;2023-07-29T14:47:40;2.03;;;0.98;;
43857;SDS011;29507;51.284;5.758;2023-07-29T14:50:06;2.53;;;1.15;;
43857;SDS011;29507;51.284;5.758;2023-07-29T14:52:31;3.63;;;0.98;;
43857;SDS011;29507;51.284;5.758;2023-07-29T14:54:57;2.97;;;1.23;;
43857;SDS011;29507;51.284;5.758;2023-07-29T14:57:23;1.90;;;1.08;;
43857;SDS011;29507;51.284;5.758;2023-07-29T14:59:48;3.13;;;1.20;;
43857;SDS011;29507;51.284;5.758;2023-07-29T15:02:14;7.28;;;1.27;;
43857;SDS011;29507;51.284;5.758;2023-07-29T15:04:40;3.55;;;1.30;;
43857;SDS011;29507;51.284;5.758;2023-07-29T15:07:05;5.40;;;1.13;;
43857;SDS011;29507;51.284;5.758;2023-07-29T15:09:31;3.42;;;1.27;;
43857;SDS011;29507;51.284;5.758;2023-07-29T15:11:56;2.65;;;1.30;;
43857;SDS011;29507;51.284;5.758;2023-07-29T15:14:22;3.28;;;1.42;;